Time;durP1;ratioP1;P1;durP2;ratioP2;P2;SDS_P1;SDS_P2;PMS_P1;PMS_P2;Temp;Humidity;BMP_temperature;BMP_pressure;BME280_temperature;BME280_humidity;BME280_pressure;Samples;Min_cycle;Max_cycle;Signal;HPM_P1;HPM_P2
2022/07/31 00:00:34;;;;;;;2.88;1.90;;;;;;;19.88;47.09;100738.91;5022132;28;20461;-66
2022/07/31 00:03:00;;;;;;;3.20;1.77;;;;;;;19.92;47.03;100752.72;5022062;28;20109;-66
2022/07/31 00:05:25;;;;;;;3.45;1.83;;;;;;;19.94;46.82;100746.13;5023710;28;20042;-66
2022/07/31 00:07:54;;;;;;;3.55;1.90;;;;;;;19.97;46.70;100742.19;5022298;28;20045;-66
2022/07/31 00:10:20;;;;;;;2.38;1.40;;;;;;;20.00;46.80;100746.31;5022081;28;20045;-67
2022/07/31 00:12:46;;;;;;;4.35;1.90;;;;;;;20.05;46.38;100743.84;4994171;28;20366;-67
2022/07/31 00:15:12;;;;;;;2.70;1.60;;;;;;;20.09;46.23;100745.06;5022485;28;20037;-66
2022/07/31 00:17:39;;;;;;;2.40;1.70;;;;;;;20.12;46.00;100744.66;5025279;28;20057;-67
2022/07/31 00:20:06;;;;;;;3.33;1.77;;;;;;;20.13;46.14;100747.13;5022846;28;20398;-66
2022/07/31 00:22:34;;;;;;;2.78;1.73;;;;;;;20.16;46.10;100748.56;5021369;28;20123;-66
2022/07/31 00:25:00;;;;;;;3.65;1.70;;;;;;;20.19;46.09;100742.78;5023043;28;20368;-67
2022/07/31 00:27:27;;;;;;;2.67;1.80;;;;;;;20.21;46.11;100742.56;5016374;28;20034;-66
2022/07/31 00:29:53;;;;;;;2.50;1.73;;;;;;;20.23;46.31;100740.50;5023380;28;20160;-67
2022/07/31 00:32:19;;;;;;;2.80;1.50;;;;;;;20.24;46.26;100742.16;5019734;28;20508;-66
2022/07/31 00:34:45;;;;;;;3.17;1.98;;;;;;;20.27;46.17;100744.41;5019509;28;20038;-66
2022/07/31 00:37:11;;;;;;;2.67;1.70;;;;;;;20.28;46.26;100738.81;5017381;28;20046;-67
2022/07/31 00:39:37;;;;;;;3.53;1.80;;;;;;;20.29;45.97;100736.97;5027151;28;20108;-66
2022/07/31 00:42:04;;;;;;;3.63;1.63;;;;;;;20.29;46.22;100735.13;5023476;28;20041;-66
2022/07/31 00:44:30;;;;;;;4.07;1.83;;;;;;;20.30;46.20;100733.25;5020435;28;20068;-66
2022/07/31 00:46:56;;;;;;;3.42;1.95;;;;;;;20.28;46.45;100725.41;5023818;28;20034;-66
2022/07/31 00:49:23;;;;;;;3.08;1.67;;;;;;;20.32;46.23;100736.56;5021698;28;20242;-66
2022/07/31 00:51:50;;;;;;;2.05;1.50;;;;;;;20.33;46.06;100736.34;5019603;28;20044;-66
2022/07/31 00:54:16;;;;;;;1.83;1.20;;;;;;;20.33;46.17;100730.13;5004994;28;20099;-66
2022/07/31 00:56:42;;;;;;;2.25;1.23;;;;;;;20.31;46.19;100719.63;5021738;28;20219;-66
2022/07/31 00:59:09;;;;;;;2.33;1.20;;;;;;;20.34;45.86;100715.69;5021268;28;20061;-66
2022/07/31 01:01:36;;;;;;;2.17;1.30;;;;;;;20.33;46.46;100725.63;5023141;28;20053;-67
2022/07/31 01:04:02;;;;;;;2.13;1.30;;;;;;;20.32;46.46;100729.31;5020572;28;20038;-69
2022/07/31 01:06:29;;;;;;;1.90;1.20;;;;;;;20.27;46.50;100717.56;5024700;28;20055;-66
2022/07/31 01:08:55;;;;;;;1.88;1.10;;;;;;;20.22;47.02;100714.69;5015519;28;20042;-66
2022/07/31 01:11:45;;;;;;;1.92;1.27;;;;;;;20.14;47.17;100719.25;5018822;28;20037;-66
2022/07/31 01:14:14;;;;;;;1.83;1.27;;;;;;;20.06;47.74;100721.31;5021192;28;20099;-66
2022/07/31 01:16:44;;;;;;;;;;;;;;;19.97;48.75;100717.22;5025601;28;20104;-67
2022/07/31 01:19:50;;;;;;;3.17;1.40;;;;;;;19.92;48.68;100720.53;5023795;28;19917;-66
2022/07/31 01:23:00;;;;;;;2.20;1.40;;;;;;;19.86;48.98;100716.00;5016173;28;20124;-66
2022/07/31 01:25:34;;;;;;;2.25;1.45;;;;;;;19.80;48.58;100723.00;5021544;28;20040;-66
2022/07/31 01:28:39;;;;;;;2.30;1.50;;;;;;;19.72;48.97;100720.56;5024316;28;20133;-66
2022/07/31 01:31:08;;;;;;;2.95;1.40;;;;;;;19.59;49.58;100721.31;5019413;28;20505;-67
2022/07/31 01:33:51;;;;;;;2.63;1.20;;;;;;;19.48;49.26;100713.91;5015398;28;20045;-66
2022/07/31 01:36:22;;;;;;;3.50;1.35;;;;;;;19.36;49.53;100715.56;5023967;28;20117;-66
2022/07/31 01:38:53;;;;;;;1.85;1.30;;;;;;;19.26;49.71;100721.34;5019173;28;20404;-66
2022/07/31 01:41:28;;;;;;;2.58;1.40;;;;;;;19.15;50.20;100717.38;5020919;28;20072;-66
2022/07/31 01:43:57;;;;;;;2.85;1.70;;;;;;;19.01;50.09;100719.19;5016271;28;20037;-67
2022/07/31 01:46:26;;;;;;;1.92;1.40;;;;;;;18.93;50.11;100716.72;5008715;28;20087;-67
2022/07/31 01:48:56;;;;;;;2.17;1.40;;;;;;;18.86;50.23;100716.69;5001377;28;20034;-66
2022/07/31 01:51:25;;;;;;;2.47;1.35;;;;;;;18.77;50.44;100715.22;5023969;28;20060;-67
2022/07/31 01:53:53;;;;;;;1.52;1.10;;;;;;;18.70;50.76;100708.97;5018433;28;20069;-66
2022/07/31 01:56:20;;;;;;;1.90;1.30;;;;;;;18.64;50.88;100712.47;5022669;28;20569;-67
2022/07/31 01:58:48;;;;;;;2.22;1.33;;;;;;;18.59;51.10;100712.22;5017732;28;20037;-66
2022/07/31 02:01:15;;;;;;;1.88;1.33;;;;;;;18.51;51.31;100712.41;5021637;28;20048;-66
2022/07/31 02:03:45;;;;;;;2.40;1.63;;;;;;;18.41;51.84;100713.59;5022084;28;20048;-66
2022/07/31 02:06:16;;;;;;;2.50;1.50;;;;;;;18.34;51.78;100707.38;5013491;28;20454;-66
2022/07/31 02:08:45;;;;;;;2.17;1.40;;;;;;;18.27;52.33;100714.56;5015954;28;20068;-66
2022/07/31 02:11:13;;;;;;;2.53;1.77;;;;;;;18.21;52.32;100713.50;5003670;28;20124;-66
2022/07/31 02:13:40;;;;;;;2.45;1.65;;;;;;;18.15;52.79;100721.50;5020250;28;20406;-66
2022/07/31 02:16:07;;;;;;;2.00;1.60;;;;;;;18.09;53.13;100724.94;5023492;28;20038;-66
2022/07/31 02:18:34;;;;;;;2.92;1.60;;;;;;;18.04;53.11;100717.50;5018958;28;20046;-66
2022/07/31 02:21:00;;;;;;;2.00;1.60;;;;;;;17.98;53.35;100708.41;5026562;28;20091;-66
2022/07/31 02:23:26;;;;;;;2.30;1.50;;;;;;;17.95;53.41;100711.50;5008212;28;20697;-66
2022/07/31 02:25:53;;;;;;;3.13;1.90;;;;;;;17.91;54.04;100710.22;5027049;28;20063;-66
2022/07/31 02:28:21;;;;;;;1.92;1.50;;;;;;;17.86;54.25;100710.00;5013808;28;20398;-67
2022/07/31 02:30:50;;;;;;;2.53;1.70;;;;;;;17.83;54.22;100702.38;5020664;28;20037;-67
2022/07/31 02:33:24;;;;;;;2.47;1.48;;;;;;;17.78;54.93;100697.56;5043923;28;20676;-66
2022/07/31 02:35:53;;;;;;;3.08;1.88;;;;;;;17.74;54.94;100704.31;5025176;28;20486;-66
2022/07/31 02:38:25;;;;;;;2.80;1.77;;;;;;;17.71;55.23;100694.00;5021470;28;20454;-66
2022/07/31 02:40:56;;;;;;;2.38;1.70;;;;;;;17.69;54.65;100695.22;5005224;28;20045;-66
2022/07/31 02:43:23;;;;;;;;;;;;;;;17.64;55.02;100690.47;5026918;28;20040;-67
2022/07/31 02:45:49;;;;;;;1.98;1.30;;;;;;;17.63;54.95;100686.13;5027603;28;20008;-67
2022/07/31 02:48:16;;;;;;;1.95;1.30;;;;;;;17.62;54.68;100692.50;5011274;28;20034;-66
2022/07/31 02:50:42;;;;;;;2.00;1.50;;;;;;;17.61;55.02;100690.81;4997156;28;20041;-67
2022/07/31 02:53:09;;;;;;;2.13;1.55;;;;;;;17.58;55.00;100686.69;5024110;28;20156;-65
2022/07/31 02:55:35;;;;;;;2.40;1.55;;;;;;;17.59;55.23;100687.53;5024840;28;20498;-64
2022/07/31 02:58:02;;;;;;;2.30;1.60;;;;;;;17.58;55.29;100684.03;5022476;28;20363;-65
2022/07/31 03:00:29;;;;;;;2.20;1.50;;;;;;;17.56;55.02;100685.25;5018195;28;20478;-65
2022/07/31 03:02:57;;;;;;;2.72;1.80;;;;;;;17.54;55.42;100682.78;5020139;28;20034;-65
2022/07/31 03:05:23;;;;;;;2.83;1.65;;;;;;;17.52;56.08;100681.28;5014952;28;20521;-65
2022/07/31 03:07:49;;;;;;;2.25;1.52;;;;;;;17.48;56.10;100686.22;5019014;28;20134;-65
2022/07/31 03:10:15;;;;;;;2.33;1.70;;;;;;;17.46;56.31;100688.25;5016040;28;20052;-64
2022/07/31 03:12:47;;;;;;;2.47;1.90;;;;;;;17.41;57.18;100680.81;5018538;28;20037;-65
2022/07/31 03:15:19;;;;;;;2.33;1.70;;;;;;;17.37;56.42;100681.38;5019720;28;20034;-65
2022/07/31 03:17:46;;;;;;;3.22;1.77;;;;;;;17.36;56.39;100679.75;5009051;28;20074;-65
2022/07/31 03:20:14;;;;;;;2.90;1.65;;;;;;;17.36;56.29;100677.88;5019350;28;20052;-65
2022/07/31 03:22:41;;;;;;;2.35;1.60;;;;;;;17.37;56.45;100674.19;5021520;28;20132;-64
2022/07/31 03:25:11;;;;;;;2.25;1.63;;;;;;;17.38;56.64;100680.38;5010580;28;20037;-65
2022/07/31 03:27:38;;;;;;;2.55;1.42;;;;;;;17.39;56.31;100672.16;5018379;28;20084;-64
2022/07/31 03:30:15;;;;;;;2.67;1.70;;;;;;;17.45;56.84;100680.41;5012906;28;20038;-65
2022/07/31 03:32:44;;;;;;;3.38;1.45;;;;;;;17.45;56.57;100678.59;5007234;28;20030;-65
2022/07/31 03:35:11;;;;;;;2.10;1.50;;;;;;;17.47;56.33;100687.25;5021039;28;20278;-64
2022/07/31 03:37:36;;;;;;;3.30;2.00;;;;;;;17.49;56.80;100673.66;5014340;28;20288;-64
2022/07/31 03:40:03;;;;;;;3.65;1.80;;;;;;;17.50;56.78;100670.00;5025987;28;20037;-68
2022/07/31 03:42:29;;;;;;;2.10;1.65;;;;;;;17.53;56.72;100674.94;5007438;28;20092;-65
2022/07/31 03:44:55;;;;;;;2.35;1.80;;;;;;;17.58;57.15;100680.53;5023488;28;20025;-65
2022/07/31 03:47:22;;;;;;;2.33;1.70;;;;;;;17.60;56.77;100670.47;5015445;28;20044;-64
2022/07/31 03:49:48;;;;;;;2.28;1.50;;;;;;;17.61;56.76;100680.97;5003668;28;20045;-65
2022/07/31 03:52:14;;;;;;;2.03;1.50;;;;;;;17.63;57.10;100683.44;5038306;28;20445;-64
2022/07/31 03:54:41;;;;;;;2.97;1.70;;;;;;;17.65;56.87;100677.91;5019604;28;20033;-65
2022/07/31 03:57:08;;;;;;;2.55;1.70;;;;;;;17.70;56.80;100683.50;5027109;28;20134;-65
2022/07/31 03:59:35;;;;;;;1.65;1.40;;;;;;;17.74;56.86;100682.91;5019702;28;20056;-65
2022/07/31 04:02:00;;;;;;;;;;;;;;;17.77;57.43;100682.53;5019299;28;20506;-65
2022/07/31 04:04:26;;;;;;;2.00;1.50;;;;;;;17.85;56.68;100688.78;5009294;28;19948;-65
2022/07/31 04:06:52;;;;;;;2.17;1.50;;;;;;;17.95;56.18;100691.94;5023071;28;20026;-65
2022/07/31 04:09:22;;;;;;;1.77;1.38;;;;;;;18.08;55.84;100701.91;5020436;28;20041;-65
2022/07/31 04:11:48;;;;;;;1.83;1.40;;;;;;;18.20;55.78;100694.97;5007913;28;20034;-65
2022/07/31 04:14:14;;;;;;;2.03;1.23;;;;;;;18.32;55.32;100701.41;5014486;28;20525;-65
2022/07/31 04:16:40;;;;;;;1.88;1.40;;;;;;;18.41;55.41;100704.75;5022637;28;20048;-65
2022/07/31 04:19:07;;;;;;;2.92;1.60;;;;;;;18.49;55.16;100701.88;5021217;28;20334;-65
2022/07/31 04:21:34;;;;;;;2.22;1.60;;;;;;;18.57;54.87;100708.94;5024546;28;20037;-65
2022/07/31 04:24:00;;;;;;;2.17;1.30;;;;;;;18.63;54.84;100705.44;5016994;28;20041;-65
2022/07/31 04:26:28;;;;;;;2.53;1.65;;;;;;;18.67;54.66;100702.19;5018303;28;20045;-65
2022/07/31 04:28:54;;;;;;;2.60;1.80;;;;;;;18.72;54.06;100701.56;5023471;28;20040;-65
2022/07/31 04:31:20;;;;;;;2.10;1.60;;;;;;;18.78;54.19;100708.00;5025023;28;20116;-65
2022/07/31 04:33:47;;;;;;;2.35;1.77;;;;;;;18.83;54.14;100708.22;5017680;28;20030;-65
2022/07/31 04:36:14;;;;;;;2.35;1.55;;;;;;;18.89;54.24;100704.75;5022350;28;20079;-65
2022/07/31 04:38:42;;;;;;;2.75;1.77;;;;;;;18.95;54.40;100706.63;5024235;28;20033;-65
2022/07/31 04:41:08;;;;;;;2.65;1.50;;;;;;;19.01;54.15;100705.81;5021661;28;20391;-65
2022/07/31 04:43:34;;;;;;;3.20;1.50;;;;;;;19.05;54.13;100709.72;5025506;28;20040;-65
2022/07/31 04:46:00;;;;;;;2.50;1.75;;;;;;;19.31;54.22;100703.59;5026990;28;20482;-65
2022/07/31 04:48:26;;;;;;;2.53;1.58;;;;;;;19.38;54.10;100705.44;5007202;28;20394;-65
2022/07/31 04:50:53;;;;;;;2.10;1.40;;;;;;;19.49;53.49;100705.66;5025646;28;20576;-65
2022/07/31 04:53:18;;;;;;;2.85;1.30;;;;;;;19.58;53.48;100711.66;5016554;28;20079;-65
2022/07/31 04:56:32;;;;;;;2.28;1.70;;;;;;;19.68;52.81;100708.56;5019411;28;20041;-65
2022/07/31 04:58:33;;;;;;;4.63;1.52;;;;;;;19.80;52.75;100706.91;5013798;28;20042;-65
2022/07/31 05:01:00;;;;;;;2.85;1.50;;;;;;;20.11;52.35;100708.91;5024263;28;20422;-64
2022/07/31 05:03:27;;;;;;;2.00;1.45;;;;;;;20.33;52.79;100696.06;5013532;28;20861;-64
2022/07/31 05:05:53;;;;;;;1.67;1.20;;;;;;;20.33;53.37;100695.22;5019662;28;20029;-65
2022/07/31 05:08:19;;;;;;;1.70;1.20;;;;;;;20.36;53.57;100703.69;5021190;28;20486;-65
2022/07/31 05:13:33;;;;;;;1.60;1.20;;;;;;;20.39;53.80;100707.81;5016484;28;20125;-65
2022/07/31 05:15:58;;;;;;;1.30;1.10;;;;;;;20.39;53.64;100704.31;5026087;28;20082;-65
2022/07/31 05:18:25;;;;;;;2.15;1.30;;;;;;;20.41;53.71;100707.63;5014924;28;20037;-65
2022/07/31 05:20:51;;;;;;;1.90;1.40;;;;;;;20.44;53.34;100713.38;5021445;28;20272;-65
2022/07/31 05:23:16;;;;;;;1.63;1.20;;;;;;;20.45;53.40;100708.81;5017847;28;20069;-65
2022/07/31 05:25:43;;;;;;;1.70;1.23;;;;;;;20.44;53.48;100710.69;5018931;28;20060;-65
2022/07/31 05:28:08;;;;;;;2.33;1.45;;;;;;;20.46;53.13;100716.69;5018530;28;20037;-66
2022/07/31 05:30:36;;;;;;;1.58;1.20;;;;;;;20.48;53.36;100711.91;5020792;28;20037;-65
2022/07/31 05:33:04;;;;;;;2.22;1.05;;;;;;;20.58;52.96;100709.63;5024892;28;20034;-65
2022/07/31 05:35:30;;;;;;;2.33;1.30;;;;;;;20.71;53.08;100713.28;5004122;28;20037;-65
2022/07/31 05:37:56;;;;;;;1.48;1.08;;;;;;;20.79;52.74;100715.75;5037834;28;20046;-65
2022/07/31 05:40:22;;;;;;;1.75;1.20;;;;;;;20.87;52.31;100726.22;5021362;28;20129;-65
2022/07/31 05:42:48;;;;;;;1.80;1.30;;;;;;;20.93;51.66;100711.94;5019425;28;20526;-65
2022/07/31 05:45:14;;;;;;;2.05;1.27;;;;;;;20.96;51.13;100724.94;5019576;28;20121;-65
2022/07/31 05:47:40;;;;;;;2.72;1.55;;;;;;;21.02;50.95;100725.13;5018109;28;20104;-65
2022/07/31 05:50:07;;;;;;;3.45;1.88;;;;;;;21.01;50.66;100724.31;4997835;28;20033;-65
2022/07/31 05:52:36;;;;;;;2.55;1.73;;;;;;;21.05;50.54;100714.78;5020930;28;20038;-65
2022/07/31 05:55:03;;;;;;;2.33;1.60;;;;;;;21.25;50.27;100708.44;5017131;28;20200;-65
2022/07/31 05:57:29;;;;;;;2.13;1.50;;;;;;;21.42;50.11;100710.38;5017233;28;20045;-65
2022/07/31 05:59:55;;;;;;;3.28;1.40;;;;;;;21.58;49.79;100716.28;5023886;28;20040;-65
2022/07/31 06:02:21;;;;;;;2.58;1.80;;;;;;;21.70;49.20;100717.22;5019550;28;20137;-65
2022/07/31 06:04:47;;;;;;;2.40;1.75;;;;;;;21.81;49.74;100716.50;5013016;28;20076;-66
2022/07/31 06:07:14;;;;;;;3.53;1.80;;;;;;;21.82;49.13;100704.66;5019586;28;20033;-65
2022/07/31 06:09:40;;;;;;;3.97;1.75;;;;;;;21.87;49.25;100709.38;5014801;28;20042;-65
2022/07/31 06:12:06;;;;;;;2.50;1.75;;;;;;;21.91;48.98;100701.72;5008120;28;20041;-65
2022/07/31 06:14:33;;;;;;;2.75;1.70;;;;;;;21.91;49.30;100707.91;5015368;28;20076;-65
2022/07/31 06:16:58;;;;;;;2.25;1.70;;;;;;;21.99;49.20;100714.88;5014775;28;20038;-65
2022/07/31 06:19:25;;;;;;;1.98;1.40;;;;;;;22.14;49.21;100714.50;5018511;28;20033;-65
2022/07/31 06:21:58;;;;;;;2.22;1.30;;;;;;;22.26;49.51;100716.28;5017068;28;20037;-65
2022/07/31 06:24:24;;;;;;;1.50;1.17;;;;;;;22.42;49.55;100716.72;5011693;28;20034;-65
2022/07/31 06:26:51;;;;;;;1.40;1.20;;;;;;;22.50;49.62;100723.66;5039312;28;20099;-65
2022/07/31 06:29:17;;;;;;;1.30;1.05;;;;;;;22.58;49.61;100716.09;5018507;28;20037;-65
2022/07/31 06:31:43;;;;;;;2.63;1.20;;;;;;;22.71;49.31;100708.88;5015701;28;20433;-65
2022/07/31 06:34:09;;;;;;;1.63;1.23;;;;;;;22.76;49.27;100717.09;5015708;28;20465;-66
2022/07/31 06:36:35;;;;;;;1.83;1.38;;;;;;;22.85;49.54;100710.34;5014832;28;20042;-65
2022/07/31 06:39:01;;;;;;;2.55;1.60;;;;;;;22.89;48.36;100716.94;5017369;28;20046;-65
2022/07/31 06:41:43;;;;;;;2.45;1.55;;;;;;;22.94;47.79;100721.66;5012034;28;20034;-65
2022/07/31 06:44:10;;;;;;;3.38;1.85;;;;;;;22.91;47.32;100728.31;5019037;28;20041;-66
2022/07/31 06:46:36;;;;;;;2.92;1.60;;;;;;;22.92;47.11;100732.66;5026379;28;20044;-65
2022/07/31 06:49:03;;;;;;;2.50;1.60;;;;;;;22.95;46.85;100731.38;5022766;28;20396;-65
2022/07/31 06:51:29;;;;;;;2.47;1.60;;;;;;;22.98;46.98;100731.78;5017453;28;20506;-65
2022/07/31 06:53:56;;;;;;;2.13;1.42;;;;;;;23.06;46.85;100738.72;5016115;28;20510;-66
2022/07/31 06:56:22;;;;;;;2.22;1.50;;;;;;;23.15;46.58;100740.06;5015390;28;20083;-65
2022/07/31 06:58:49;;;;;;;2.28;1.60;;;;;;;23.19;46.51;100741.25;5013583;28;20030;-65
2022/07/31 07:01:14;;;;;;;4.18;2.00;;;;;;;23.31;46.62;100746.66;5016961;28;20064;-65
2022/07/31 07:03:42;;;;;;;3.90;1.85;;;;;;;23.44;46.76;100741.06;5017307;28;20041;-66
2022/07/31 07:06:08;;;;;;;3.25;2.00;;;;;;;23.57;46.51;100741.91;5044355;28;20551;-66
2022/07/31 07:08:34;;;;;;;3.42;2.10;;;;;;;23.65;46.05;100733.47;5024475;28;20034;-66
2022/07/31 07:11:01;;;;;;;2.88;2.10;;;;;;;23.79;46.09;100732.22;5020683;28;20474;-65
2022/07/31 07:13:26;;;;;;;3.47;1.80;;;;;;;24.10;45.58;100730.22;5015838;28;20132;-65
2022/07/31 07:15:52;;;;;;;2.93;2.10;;;;;;;24.34;44.39;100733.72;5020028;28;20033;-66
2022/07/31 07:18:20;;;;;;;3.28;2.00;;;;;;;24.62;44.38;100735.63;5021939;28;20641;-65
2022/07/31 07:20:47;;;;;;;2.60;2.08;;;;;;;24.83;43.85;100727.94;5022126;28;20029;-65
2022/07/31 07:23:13;;;;;;;2.20;1.75;;;;;;;25.03;44.00;100720.22;5025626;28;20125;-65
2022/07/31 07:25:39;;;;;;;2.20;1.70;;;;;;;25.26;43.23;100723.88;5014970;28;20121;-66
2022/07/31 07:28:06;;;;;;;2.63;1.60;;;;;;;25.41;42.73;100718.72;5043620;28;20694;-66
2022/07/31 07:30:33;;;;;;;2.65;1.77;;;;;;;25.48;42.14;100713.13;5024245;28;20069;-66
2022/07/31 07:33:00;;;;;;;2.72;1.60;;;;;;;25.64;41.96;100715.84;5023781;28;20045;-66
2022/07/31 07:35:26;;;;;;;3.17;2.25;;;;;;;25.59;40.27;100704.94;5014840;28;20034;-66
2022/07/31 07:37:53;;;;;;;4.07;2.50;;;;;;;25.41;39.81;100711.44;5015260;28;20034;-65
2022/07/31 07:40:20;;;;;;;3.55;1.90;;;;;;;25.54;40.43;100717.56;5009623;28;20455;-64
2022/07/31 07:42:46;;;;;;;2.63;1.67;;;;;;;25.79;40.52;100715.25;5018217;28;20057;-64
2022/07/31 07:45:13;;;;;;;2.75;1.83;;;;;;;25.97;39.23;100716.09;5017587;28;20029;-64
2022/07/31 07:47:39;;;;;;;2.58;1.60;;;;;;;26.11;39.39;100716.56;5021992;28;20564;-65
2022/07/31 07:50:07;;;;;;;5.35;1.90;;;;;;;26.18;38.39;100709.06;5023491;28;20041;-64
2022/07/31 07:52:34;;;;;;;3.17;1.60;;;;;;;26.32;38.42;100715.75;5026757;28;20272;-64
2022/07/31 07:55:01;;;;;;;3.35;1.48;;;;;;;26.48;39.18;100708.59;4996339;28;20025;-64
2022/07/31 07:57:27;;;;;;;2.95;1.40;;;;;;;26.57;39.08;100714.44;5016291;28;20053;-65
2022/07/31 07:59:54;;;;;;;2.22;1.42;;;;;;;26.51;38.89;100710.00;5024230;28;20498;-64
2022/07/31 08:02:20;;;;;;;2.63;1.90;;;;;;;26.63;37.52;100705.28;5023400;28;20473;-64
2022/07/31 08:04:47;;;;;;;2.80;1.80;;;;;;;27.17;37.57;100701.75;5017039;28;20191;-64
2022/07/31 08:07:12;;;;;;;3.83;1.80;;;;;;;27.32;36.87;100696.50;5000681;28;20026;-65
2022/07/31 08:09:38;;;;;;;2.90;1.80;;;;;;;27.41;36.68;100694.94;5027017;28;20322;-65
2022/07/31 08:12:05;;;;;;;2.72;1.83;;;;;;;27.57;35.55;100700.47;5020418;28;20129;-64
2022/07/31 08:14:31;;;;;;;2.72;1.70;;;;;;;27.85;35.14;100700.13;5014931;28;20037;-65
2022/07/31 08:16:57;;;;;;;2.60;1.70;;;;;;;28.41;35.05;100693.31;5018135;28;20056;-65
2022/07/31 08:19:24;;;;;;;4.63;2.08;;;;;;;28.44;32.40;100696.34;5000935;28;20072;-64
2022/07/31 08:21:50;;;;;;;3.55;1.80;;;;;;;28.44;33.58;100690.91;5020469;28;20548;-64
2022/07/31 08:24:17;;;;;;;2.67;1.55;;;;;;;28.65;33.58;100686.38;5020882;28;20053;-65
2022/07/31 08:29:28;;;;;;;2.70;1.35;;;;;;;30.16;31.69;100682.22;5017055;28;20044;-65
2022/07/31 08:31:54;;;;;;;;;;;;;;;31.48;29.87;100677.03;5037083;28;20030;-65
2022/07/31 08:34:19;;;;;;;;;;;;;;;31.89;27.72;100678.50;5016320;28;21831;-65
2022/07/31 08:36:45;;;;;;;2.08;1.35;;;;;;;32.13;28.29;100673.88;5014933;28;20165;-65
2022/07/31 08:39:15;;;;;;;1.95;1.20;;;;;;;32.88;26.44;100668.75;5024191;28;20423;-64
2022/07/31 08:41:40;;;;;;;2.80;1.60;;;;;;;33.18;26.58;100676.50;5020972;28;20045;-65
2022/07/31 08:44:08;;;;;;;2.83;1.45;;;;;;;33.38;25.92;100669.84;5018992;28;20030;-65
2022/07/31 08:46:35;;;;;;;;;;;;;;;32.84;26.00;100667.72;5006664;28;20037;-65
2022/07/31 08:49:03;;;;;;;3.00;1.95;;;;;;;33.53;25.79;100663.28;5016048;28;19917;-65
2022/07/31 08:51:31;;;;;;;;;;;;;;;34.26;25.38;100666.28;5021395;28;20037;-65
2022/07/31 08:53:59;;;;;;;2.00;1.40;;;;;;;34.64;24.16;100658.56;5022724;28;19924;-66
2022/07/31 08:56:26;;;;;;;1.95;1.33;;;;;;;35.40;23.81;100659.75;5003515;28;20100;-65
2022/07/31 08:58:55;;;;;;;1.63;1.23;;;;;;;35.52;23.54;100668.22;5017067;28;20483;-65
2022/07/31 09:01:22;;;;;;;1.63;1.27;;;;;;;34.90;24.34;100668.94;5004469;28;20048;-65
2022/07/31 09:03:48;;;;;;;2.85;1.40;;;;;;;34.50;24.66;100665.19;5018287;28;20522;-65
2022/07/31 09:06:17;;;;;;;3.88;1.20;;;;;;;33.78;24.01;100658.47;5020535;28;20045;-65
2022/07/31 09:08:43;;;;;;;2.92;1.40;;;;;;;33.32;25.12;100656.53;5022624;28;20038;-65
2022/07/31 09:11:12;;;;;;;2.10;1.48;;;;;;;32.84;25.44;100665.78;5018979;28;20045;-65
2022/07/31 09:13:40;;;;;;;3.13;1.30;;;;;;;32.78;25.97;100659.59;5003261;28;20045;-65
2022/07/31 09:16:06;;;;;;;;;;;;;;;32.34;26.05;100651.72;5020331;28;20037;-65
2022/07/31 09:18:33;;;;;;;3.45;1.58;;;;;;;31.64;26.64;100655.81;5017437;28;19921;-65
2022/07/31 09:21:05;;;;;;;3.10;1.60;;;;;;;31.02;27.75;100655.56;5017365;28;20136;-65
2022/07/31 09:23:32;;;;;;;3.13;1.52;;;;;;;30.90;27.93;100649.66;5017646;28;20041;-65
2022/07/31 09:26:03;;;;;;;3.30;1.58;;;;;;;31.02;28.31;100646.56;5022802;28;20053;-65
2022/07/31 09:28:41;;;;;;;2.80;1.40;;;;;;;31.21;28.13;100638.47;5020253;28;20399;-65
2022/07/31 09:31:13;;;;;;;2.38;1.55;;;;;;;31.67;27.76;100651.69;5021536;28;20075;-65
2022/07/31 09:33:42;;;;;;;;;;;;;;;31.78;27.64;100641.47;5041677;28;20033;-65
2022/07/31 09:36:09;;;;;;;1.85;1.40;;;;;;;31.73;27.68;100634.94;5020107;28;19917;-67
2022/07/31 09:38:41;;;;;;;1.90;1.40;;;;;;;31.94;28.34;100635.53;5019655;28;20050;-65
2022/07/31 09:41:12;;;;;;;1.80;1.30;;;;;;;32.32;27.42;100638.34;5021038;28;20029;-66
2022/07/31 09:44:03;;;;;;;2.00;1.48;;;;;;;33.93;25.99;100635.38;5012829;28;20038;-66
2022/07/31 09:46:47;;;;;;;2.38;1.50;;;;;;;34.87;24.11;100634.66;5030342;28;20044;-66
2022/07/31 09:49:14;;;;;;;2.65;1.65;;;;;;;34.94;24.33;100622.41;5022032;28;20567;-66
2022/07/31 09:51:45;;;;;;;3.67;1.38;;;;;;;34.89;23.71;100621.41;5039610;28;20060;-66
2022/07/31 09:54:30;;;;;;;1.77;1.20;;;;;;;34.84;24.05;100629.78;5023246;28;20048;-66
2022/07/31 09:56:57;;;;;;;2.75;1.30;;;;;;;35.06;24.47;100612.50;5030575;28;20029;-66
2022/07/31 09:59:25;;;;;;;;;;;;;;;35.53;24.28;100610.13;5036704;28;20072;-66
2022/07/31 10:01:52;;;;;;;1.70;1.17;;;;;;;35.75;23.24;100619.44;5024332;28;19917;-65
2022/07/31 10:04:20;;;;;;;2.20;1.42;;;;;;;35.12;23.18;100615.13;5042155;28;20405;-66
2022/07/31 10:06:47;;;;;;;;;;;;;;;34.51;23.89;100611.91;5046918;28;20393;-66
2022/07/31 10:09:16;;;;;;;1.90;1.30;;;;;;;34.05;24.39;100609.03;5031633;28;19917;-66
2022/07/31 10:11:44;;;;;;;1.80;1.40;;;;;;;33.38;24.39;100606.00;5026142;28;20047;-65
2022/07/31 10:14:17;;;;;;;3.45;1.27;;;;;;;33.20;25.13;100603.03;5021490;28;20049;-66
2022/07/31 10:16:44;;;;;;;1.52;1.23;;;;;;;33.19;25.33;100611.56;5021136;28;20045;-66
2022/07/31 10:19:13;;;;;;;3.80;1.30;;;;;;;33.13;25.53;100604.53;5028498;28;20042;-65
2022/07/31 10:21:50;;;;;;;1.70;1.13;;;;;;;33.21;25.21;100596.44;5027642;28;20030;-66
2022/07/31 10:24:20;;;;;;;3.42;1.50;;;;;;;33.14;24.90;100598.75;5025578;28;20509;-66
2022/07/31 10:26:57;;;;;;;3.30;1.40;;;;;;;33.17;25.13;100597.34;5026188;28;20424;-65
2022/07/31 10:29:23;;;;;;;2.60;1.50;;;;;;;33.48;25.19;100581.13;5025297;28;20042;-66
2022/07/31 10:31:50;;;;;;;2.20;1.50;;;;;;;33.92;24.82;100587.94;5028387;28;20033;-66
2022/07/31 10:34:17;;;;;;;3.00;1.40;;;;;;;34.36;24.66;100585.63;5019336;28;20041;-66
2022/07/31 10:36:47;;;;;;;2.88;1.33;;;;;;;36.19;22.53;100543.31;5016149;28;20041;-66
2022/07/31 10:39:27;;;;;;;5.22;1.35;;;;;;;36.93;20.61;100586.31;5026773;28;20038;-65
2022/07/31 10:42:27;;;;;;;2.70;1.30;;;;;;;36.82;21.12;100579.53;5025334;28;20033;-66
2022/07/31 10:45:07;;;;;;;1.52;1.17;;;;;;;37.64;20.67;100575.84;5031109;28;20045;-66
2022/07/31 10:47:33;;;;;;;2.25;1.48;;;;;;;37.22;20.75;100572.97;5048130;28;20037;-66
2022/07/31 10:50:00;;;;;;;1.70;1.17;;;;;;;36.81;21.89;100572.41;5045557;28;20031;-66
2022/07/31 10:52:36;;;;;;;1.45;1.10;;;;;;;37.35;21.34;100558.13;5029115;28;20033;-66
2022/07/31 10:55:28;;;;;;;2.05;1.20;;;;;;;38.41;20.27;100548.84;5039231;28;20099;-66
2022/07/31 10:58:05;;;;;;;1.77;1.10;;;;;;;38.80;20.17;100549.44;5040773;28;20429;-66
2022/07/31 11:00:31;;;;;;;3.40;1.45;;;;;;;38.30;19.60;100539.34;5035837;28;20500;-65
2022/07/31 11:02:57;;;;;;;;;;;;;;;37.65;20.61;100541.63;5043836;28;20120;-66
2022/07/31 11:05:26;;;;;;;1.63;1.20;;;;;;;38.33;20.86;100539.50;5046519;28;19978;-66
2022/07/31 11:08:00;;;;;;;;;;;;;;;38.71;19.90;100535.72;5043907;28;20037;-66
2022/07/31 11:10:26;;;;;;;;;;;;;;;38.51;19.92;100534.63;5044967;28;19925;-66
2022/07/31 11:13:04;;;;;;;2.85;1.27;;;;;;;38.29;20.13;100530.25;5036870;28;19925;-66
2022/07/31 11:15:31;;;;;;;1.50;1.10;;;;;;;38.44;19.55;100532.38;5027456;28;20033;-66
2022/07/31 11:17:56;;;;;;;2.10;1.23;;;;;;;38.00;19.40;100520.94;5038524;28;20464;-66
2022/07/31 11:20:28;;;;;;;2.80;1.23;;;;;;;37.56;20.03;100525.91;5042633;28;20044;-66
2022/07/31 11:22:59;;;;;;;2.35;1.30;;;;;;;38.30;20.10;100526.34;5030286;28;20048;-66
2022/07/31 11:25:31;;;;;;;2.05;1.50;;;;;;;39.37;20.03;100529.25;5037697;28;20033;-66
2022/07/31 11:28:38;;;;;;;2.38;1.10;;;;;;;40.80;18.62;100517.94;5037590;28;20068;-66
2022/07/31 11:31:08;;;;;;;3.33;1.20;;;;;;;41.21;16.76;100510.25;5035890;28;20076;-66
2022/07/31 11:33:42;;;;;;;3.22;1.40;;;;;;;40.90;16.95;100512.66;5027305;28;20994;-66
2022/07/31 11:36:20;;;;;;;2.38;1.10;;;;;;;40.15;17.94;100507.06;5025847;28;20771;-66
2022/07/31 11:38:55;;;;;;;2.90;1.10;;;;;;;39.42;19.03;100512.41;5026339;28;20042;-66
2022/07/31 11:41:29;;;;;;;1.67;1.20;;;;;;;38.43;19.70;100511.44;5029190;28;20069;-66